createdAt,value
2022-12-23T00:01:23.215Z,100224.41
2022-12-23T00:03:49.732Z,100223.59
2022-12-23T00:06:17.831Z,100230.31
2022-12-23T00:08:44.349Z,100241.09
2022-12-23T00:11:14.800Z,100240.47
2022-12-23T00:13:59.821Z,100236.50
2022-12-23T00:16:26.269Z,100247.00
2022-12-23T00:18:54.339Z,100241.59
2022-12-23T00:21:21.747Z,100247.66
2022-12-23T00:23:50.278Z,100238.19
2022-12-23T00:26:20.074Z,100238.34
2022-12-23T00:28:46.428Z,100248.50
2022-12-23T00:31:13.770Z,100251.78
2022-12-23T00:33:42.893Z,100254.41
2022-12-23T00:36:19.660Z,100256.03
2022-12-23T00:39:05.218Z,100261.59
2022-12-23T00:41:50.677Z,100261.59
2022-12-23T00:44:17.137Z,100271.56
2022-12-23T00:46:43.621Z,100267.47
2022-12-23T00:49:31.968Z,100267.94
2022-12-23T00:51:59.010Z,100274.84
2022-12-23T00:54:25.647Z,100263.38
2022-12-23T00:56:52.205Z,100272.88
2022-12-23T00:59:18.724Z,100275.50
2022-12-23T01:02:04.343Z,100268.59
2022-12-23T01:04:49.397Z,100276.81
2022-12-23T01:07:16.212Z,100290.41
2022-12-23T01:09:42.908Z,100286.94
2022-12-23T01:12:09.534Z,100297.44
2022-12-23T01:14:36.687Z,100299.59
2022-12-23T01:17:03.369Z,100298.63
2022-12-23T01:19:29.807Z,100305.28
2022-12-23T01:21:56.171Z,100301.53
2022-12-23T01:24:23.026Z,100302.84
2022-12-23T01:26:49.403Z,100305.47
2022-12-23T01:29:15.734Z,100306.75
2022-12-23T01:31:42.163Z,100314.63
2022-12-23T01:34:08.563Z,100320.00
2022-12-23T01:36:34.959Z,100312.16
2022-12-23T01:39:01.381Z,100314.09
2022-12-23T01:41:50.176Z,100319.25
2022-12-23T01:44:52.021Z,100317.13
2022-12-23T01:47:33.815Z,100321.38
2022-12-23T01:50:14.709Z,100320.88
2022-12-23T01:52:47.845Z,100323.63
2022-12-23T01:55:17.492Z,100327.91
2022-12-23T01:57:44.879Z,100332.78
2022-12-23T02:00:30.482Z,100334.28
2022-12-23T02:03:15.333Z,100327.53
2022-12-23T02:05:44.498Z,100326.94
2022-12-23T02:08:30.104Z,100341.53
2022-12-23T02:11:28.103Z,100341.38
2022-12-23T02:14:37.831Z,100351.50
2022-12-23T02:17:21.391Z,100357.88
2022-12-23T02:20:18.171Z,100360.31
2022-12-23T02:23:08.082Z,100361.00
2022-12-23T02:26:11.974Z,100375.53
2022-12-23T02:28:52.477Z,100375.06
2022-12-23T02:31:29.609Z,100376.03
2022-12-23T02:34:17.218Z,100377.41
2022-12-23T02:37:02.935Z,100386.22
2022-12-23T02:39:42.478Z,100381.88
2022-12-23T02:42:15.447Z,100391.25
2022-12-23T02:45:01.832Z,100396.31
2022-12-23T02:47:34.526Z,100402.09
2022-12-23T02:50:09.433Z,100406.03
2022-12-23T02:52:38.349Z,100397.38
2022-12-23T02:55:13.126Z,100402.94
2022-12-23T02:57:44.781Z,100405.03
2022-12-23T03:00:12.498Z,100421.94
2022-12-23T03:02:41.635Z,100421.78
2022-12-23T03:05:28.071Z,100429.47
2022-12-23T03:08:00.168Z,100433.25
2022-12-23T03:11:05.398Z,100438.00
2022-12-23T03:13:41.040Z,100439.66
2022-12-23T03:16:10.455Z,100439.81
2022-12-23T03:18:56.519Z,100436.72
2022-12-23T03:21:35.551Z,100435.09
2022-12-23T03:24:14.011Z,100438.00
2022-12-23T03:26:52.108Z,100430.47
2022-12-23T03:29:32.299Z,100435.38
2022-12-23T03:32:02.763Z,100430.00
2022-12-23T03:34:36.538Z,100434.94
2022-12-23T03:37:08.084Z,100425.56
2022-12-23T03:39:47.039Z,100425.97
2022-12-23T03:42:20.880Z,100420.03
2022-12-23T03:45:11.156Z,100421.31
2022-12-23T03:47:48.935Z,100424.75
2022-12-23T03:50:19.410Z,100424.91
2022-12-23T03:52:59.669Z,100422.28
2022-12-23T03:55:54.056Z,100423.47
2022-12-23T03:58:26.563Z,100428.72
2022-12-23T04:01:00.515Z,100425.13
2022-12-23T04:03:48.478Z,100428.06
2022-12-23T04:06:16.690Z,100430.53
2022-12-23T04:08:45.921Z,100433.28
2022-12-23T04:11:12.966Z,100442.97
2022-12-23T04:13:39.375Z,100444.53
2022-12-23T04:16:06.685Z,100443.09
2022-12-23T04:18:33.303Z,100453.88
2022-12-23T04:20:59.823Z,100448.97
2022-12-23T04:23:26.233Z,100457.63
2022-12-23T04:25:52.576Z,100459.19
2022-12-23T04:28:20.083Z,100463.19
2022-12-23T04:30:46.567Z,100464.63
2022-12-23T04:33:13.167Z,100476.19
2022-12-23T04:35:39.674Z,100473.75
2022-12-23T04:38:06.084Z,100477.47
2022-12-23T04:40:32.445Z,100474.34
2022-12-23T04:42:58.779Z,100476.44
2022-12-23T04:45:25.166Z,100479.06
2022-12-23T04:47:51.625Z,100473.16
2022-12-23T04:50:18.129Z,100477.94
2022-12-23T04:52:44.730Z,100472.84
2022-12-23T04:55:11.362Z,100470.22
2022-12-23T04:57:37.843Z,100467.25
2022-12-23T05:00:05.246Z,100476.00
2022-12-23T05:02:31.710Z,100474.78
2022-12-23T05:04:58.187Z,100470.00
2022-12-23T05:07:24.908Z,100460.63
2022-12-23T05:09:51.351Z,100458.69
2022-12-23T05:12:17.829Z,100452.63
2022-12-23T05:14:44.314Z,100453.16
2022-12-23T05:17:10.631Z,100452.22
2022-12-23T05:19:37.165Z,100455.50
2022-12-23T05:22:03.541Z,100460.34
2022-12-23T05:24:29.884Z,100471.78
2022-12-23T05:26:59.995Z,100487.22
2022-12-23T05:29:27.046Z,100482.78
2022-12-23T05:31:53.546Z,100483.47
2022-12-23T05:34:20.152Z,100491.03
2022-12-23T05:36:46.575Z,100488.28
2022-12-23T05:39:13.054Z,100489.56
2022-12-23T05:41:39.525Z,100500.84
2022-12-23T05:44:05.967Z,100508.38
2022-12-23T05:46:32.620Z,100515.75
2022-12-23T05:48:59.332Z,100512.19
2022-12-23T05:51:25.775Z,100518.03
2022-12-23T05:53:52.179Z,100507.84
2022-12-23T05:56:18.772Z,100513.47
2022-12-23T05:58:45.232Z,100512.03
2022-12-23T06:01:11.559Z,100512.03
2022-12-23T06:03:38.198Z,100508.34
2022-12-23T06:06:05.086Z,100518.53
2022-12-23T06:08:31.428Z,100517.03
2022-12-23T06:10:59.908Z,100516.50
2022-12-23T06:13:26.400Z,100511.34
2022-12-23T06:15:52.831Z,100512.72
2022-12-23T06:18:19.236Z,100512.06
2022-12-23T06:20:47.607Z,100503.75
2022-12-23T06:23:14.118Z,100503.53
2022-12-23T06:25:40.526Z,100503.22
2022-12-23T06:28:07.820Z,100496.84
2022-12-23T06:30:34.503Z,100494.50
2022-12-23T06:33:01.647Z,100505.50
2022-12-23T06:35:28.210Z,100487.53
2022-12-23T06:37:54.727Z,100485.25
2022-12-23T06:40:21.585Z,100485.59
2022-12-23T06:42:47.999Z,100488.91
2022-12-23T06:45:14.748Z,100488.63
2022-12-23T06:47:41.153Z,100498.13
2022-12-23T06:50:08.997Z,100490.94
2022-12-23T06:52:35.795Z,100497.28
2022-12-23T06:55:02.337Z,100514.66
2022-12-23T06:57:28.767Z,100509.56
2022-12-23T06:59:55.946Z,100517.56
2022-12-23T07:02:22.577Z,100529.28
2022-12-23T07:04:49.225Z,100529.59
2022-12-23T07:07:15.557Z,100537.59
2022-12-23T07:09:41.975Z,100540.75
2022-12-23T07:12:08.472Z,100553.16
2022-12-23T07:14:35.090Z,100548.75
2022-12-23T07:17:01.666Z,100558.09
2022-12-23T07:19:28.178Z,100560.56
2022-12-23T07:21:54.891Z,100571.19
2022-12-23T07:24:21.384Z,100564.69
2022-12-23T07:26:47.972Z,100567.84
2022-12-23T07:29:14.573Z,100560.00
2022-12-23T07:31:41.575Z,100554.47
2022-12-23T07:34:08.625Z,100560.22
2022-12-23T07:36:35.588Z,100562.69
2022-12-23T07:39:02.449Z,100574.00
2022-12-23T07:41:29.210Z,100572.34
2022-12-23T07:43:55.567Z,100567.66
2022-12-23T07:46:22.564Z,100565.16
2022-12-23T07:48:49.408Z,100563.22
2022-12-23T07:51:15.836Z,100552.34
2022-12-23T07:53:42.605Z,100556.63
2022-12-23T07:56:09.488Z,100549.91
2022-12-23T07:58:36.159Z,100540.13
2022-12-23T08:01:08.723Z,100543.94
2022-12-23T08:03:35.697Z,100536.38
2022-12-23T08:06:14.280Z,100540.34
2022-12-23T08:08:41.850Z,100537.25
2022-12-23T08:11:10.219Z,100545.13
2022-12-23T08:13:39.348Z,100555.31
2022-12-23T08:16:10.237Z,100550.06
2022-12-23T08:18:41.201Z,100542.22
2022-12-23T08:21:19.677Z,100535.19
2022-12-23T08:23:47.597Z,100546.34
2022-12-23T08:26:17.237Z,100539.81
2022-12-23T08:28:44.800Z,100542.28
2022-12-23T08:31:21.259Z,100550.28
2022-12-23T08:33:50.219Z,100545.91
2022-12-23T08:36:23.019Z,100538.88
2022-12-23T08:38:52.193Z,100538.56
2022-12-23T08:41:23.630Z,100534.69
2022-12-23T08:43:50.602Z,100519.78
2022-12-23T08:46:18.350Z,100515.22
2022-12-23T08:48:49.083Z,100520.47
2022-12-23T08:51:18.009Z,100512.28
2022-12-23T08:53:45.290Z,100511.31
2022-12-23T08:56:15.284Z,100509.22
2022-12-23T08:58:47.684Z,100503.84
2022-12-23T09:01:17.296Z,100505.63
2022-12-23T09:03:44.550Z,100502.50
2022-12-23T09:06:14.373Z,100500.84
2022-12-23T09:08:41.671Z,100493.78
2022-12-23T09:11:17.281Z,100493.78
2022-12-23T09:13:44.172Z,100490.66
2022-12-23T09:16:11.486Z,100491.84
2022-12-23T09:18:38.532Z,100501.22
2022-12-23T09:21:11.708Z,100504.19
2022-12-23T09:23:38.030Z,100495.13
2022-12-23T09:26:05.353Z,100498.97
2022-12-23T09:28:31.765Z,100482.56
2022-12-23T09:30:58.132Z,100470.13
2022-12-23T09:33:24.615Z,100480.63
2022-12-23T09:35:51.018Z,100471.78
2022-12-23T09:38:17.403Z,100477.03
2022-12-23T09:40:43.904Z,100484.91
2022-12-23T09:43:22.196Z,100480.75
2022-12-23T09:46:05.993Z,100479.03
2022-12-23T09:48:45.501Z,100480.38
2022-12-23T09:51:13.673Z,100471.31
2022-12-23T09:53:55.892Z,100464.81
2022-12-23T09:56:34.179Z,100452.16
2022-12-23T09:59:14.611Z,100457.09
2022-12-23T10:02:00.798Z,100452.69
2022-12-23T10:04:45.531Z,100448.13
2022-12-23T10:07:26.432Z,100448.78
2022-12-23T10:09:55.285Z,100440.91
2022-12-23T10:12:40.535Z,100431.25
2022-12-23T10:15:21.472Z,100426.81
2022-12-23T10:17:52.619Z,100418.00
2022-12-23T10:20:30.244Z,100409.31
2022-12-23T10:22:57.525Z,100403.91
2022-12-23T10:25:33.157Z,100399.78
2022-12-23T10:27:59.537Z,100393.88
2022-12-23T10:30:53.963Z,100397.66
2022-12-23T10:33:21.994Z,100397.19
2022-12-23T10:35:53.338Z,100395.22
2022-12-23T10:38:26.410Z,100386.41
2022-12-23T10:41:28.573Z,100380.31
2022-12-23T10:44:04.158Z,100380.31
2022-12-23T10:46:45.663Z,100373.28
2022-12-23T10:49:30.767Z,100369.81
2022-12-23T10:52:06.729Z,100367.38
2022-12-23T10:54:34.812Z,100369.00
2022-12-23T10:57:02.859Z,100363.91
2022-12-23T10:59:32.354Z,100362.28
2022-12-23T11:02:20.943Z,100355.69
2022-12-23T11:04:49.634Z,100353.19
2022-12-23T11:10:15.844Z,100352.91
2022-12-23T11:12:45.631Z,100353.50
2022-12-23T11:15:39.705Z,100357.78
2022-12-23T11:18:12.238Z,100351.13
2022-12-23T11:20:40.850Z,100347.53
2022-12-23T11:23:23.771Z,100338.06
2022-12-23T11:26:03.776Z,100333.13
2022-12-23T11:28:32.765Z,100320.13
2022-12-23T11:31:09.484Z,100323.69
2022-12-23T11:33:39.816Z,100326.03
2022-12-23T11:36:08.338Z,100326.69
2022-12-23T11:38:37.770Z,100322.09
2022-12-23T11:41:05.611Z,100327.81
2022-12-23T11:43:33.095Z,100324.81
2022-12-23T11:46:28.935Z,100326.44
2022-12-23T11:49:05.961Z,100312.81
2022-12-23T11:51:32.449Z,100313.59
2022-12-23T11:54:02.713Z,100290.72
2022-12-23T11:56:36.206Z,100287.97
2022-12-23T11:59:07.839Z,100284.22
2022-12-23T12:01:36.284Z,100285.84
2022-12-23T12:04:09.292Z,100268.50
2022-12-23T12:06:42.185Z,100255.06
2022-12-23T12:09:12.881Z,100246.06
2022-12-23T12:11:46.621Z,100243.13
2022-12-23T12:14:22.852Z,100229.19
2022-12-23T12:17:27.495Z,100226.41
2022-12-23T12:20:06.442Z,100222.97
2022-12-23T12:22:43.588Z,100214.13
2022-12-23T12:25:17.847Z,100200.34
2022-12-23T12:27:51.824Z,100197.72
2022-12-23T12:30:20.788Z,100197.72
2022-12-23T12:33:12.071Z,100178.88
2022-12-23T12:35:45.567Z,100175.13
2022-12-23T12:38:38.995Z,100174.00
2022-12-23T12:41:33.560Z,100179.38
2022-12-23T12:44:37.396Z,100173.34
2022-12-23T12:47:36.098Z,100167.44
2022-12-23T12:50:02.294Z,100161.19
2022-12-23T12:52:35.720Z,100159.38
2022-12-23T12:55:13.850Z,100152.19
2022-12-23T12:57:40.962Z,100139.41
2022-12-23T13:00:17.894Z,100136.63
2022-12-23T13:03:12.298Z,100121.53
2022-12-23T13:06:00.782Z,100108.28
2022-12-23T13:08:36.735Z,100104.31
2022-12-23T13:11:15.999Z,100101.53
2022-12-23T13:14:00.806Z,100085.31
2022-12-23T13:16:43.132Z,100082.22
2022-12-23T13:19:31.043Z,100083.19
2022-12-23T13:22:16.273Z,100076.31
2022-12-23T13:25:03.522Z,100071.34
2022-12-23T13:27:33.906Z,100071.66
2022-12-23T13:30:14.444Z,100050.03
2022-12-23T13:33:05.031Z,100046.63
2022-12-23T13:35:46.223Z,100042.69
2022-12-23T13:38:34.145Z,100045.84
2022-12-23T13:41:05.839Z,100030.22
2022-12-23T13:43:57.274Z,100021.41
2022-12-23T13:46:46.073Z,100022.09
2022-12-23T13:49:31.467Z,100014.88
2022-12-23T13:52:19.422Z,100002.75
2022-12-23T13:55:23.215Z,100003.38
2022-12-23T13:58:00.856Z,100001.94
2022-12-23T14:00:32.827Z,100007.78
2022-12-23T14:03:02.319Z,100003.72
2022-12-23T14:05:41.063Z,100007.97
2022-12-23T14:08:20.064Z,100003.56
2022-12-23T14:11:00.072Z,100012.56
2022-12-23T14:13:51.284Z,100027.16
2022-12-23T14:16:40.984Z,100027.31
2022-12-23T14:19:26.132Z,100034.53
2022-12-23T14:22:19.025Z,100031.09
2022-12-23T14:25:11.213Z,100016.19
2022-12-23T14:27:52.823Z,100008.31
2022-12-23T14:30:32.837Z,100000.44
2022-12-23T14:33:02.004Z,99992.44
2022-12-23T14:35:34.254Z,99990.31
2022-12-23T14:38:13.739Z,99974.56
2022-12-23T14:40:43.396Z,99967.03
2022-12-23T14:43:21.955Z,99957.50
2022-12-23T14:45:53.387Z,99955.06
2022-12-23T14:48:41.563Z,99951.94
2022-12-23T14:51:11.063Z,99943.25
2022-12-23T14:54:00.329Z,99943.59
2022-12-23T14:56:38.584Z,99935.88
2022-12-23T14:59:29.300Z,99928.84
2022-12-23T15:02:00.333Z,99938.84
2022-12-23T15:04:45.213Z,99931.63
2022-12-23T15:07:27.679Z,99944.41
2022-12-23T15:10:00.996Z,99947.34
2022-12-23T15:12:35.271Z,99923.59
2022-12-23T15:15:29.297Z,99928.53
2022-12-23T15:18:09.531Z,99948.16
2022-12-23T15:20:35.978Z,99918.19
2022-12-23T15:23:09.858Z,99942.28
2022-12-23T15:25:43.520Z,99979.34
2022-12-23T15:28:22.407Z,99998.13
2022-12-23T15:30:53.609Z,99964.06
2022-12-23T15:34:00.952Z,99936.53
2022-12-23T15:36:10.440Z,99943.44
2022-12-23T15:38:38.980Z,99958.50
2022-12-23T15:41:14.914Z,99962.59
2022-12-23T15:43:43.484Z,99966.38
2022-12-23T15:46:14.917Z,99953.91
2022-12-23T15:48:41.777Z,99958.16
2022-12-23T15:51:50.092Z,99965.53
2022-12-23T15:54:29.193Z,99969.00
2022-12-23T15:56:58.486Z,99963.75
2022-12-23T15:59:32.995Z,99956.84
2022-12-23T16:02:32.071Z,99955.53
2022-12-23T16:04:56.292Z,99954.75
2022-12-23T16:07:42.271Z,99945.56
2022-12-23T16:10:15.780Z,99937.19
2022-12-23T16:12:43.546Z,99931.97
2022-12-23T16:15:27.842Z,99937.69
2022-12-23T16:18:23.736Z,99942.13
2022-12-23T16:20:53.956Z,99942.13
2022-12-23T16:23:21.413Z,99947.03
2022-12-23T16:25:51.139Z,99946.03
2022-12-23T16:28:24.086Z,99951.13
2022-12-23T16:30:57.130Z,99947.53
2022-12-23T16:33:32.579Z,99949.31
2022-12-23T16:36:22.091Z,99950.81
2022-12-23T16:38:51.295Z,99957.66
2022-12-23T16:41:19.463Z,99959.47
2022-12-23T16:43:52.138Z,99959.78
2022-12-23T16:46:21.896Z,99967.66
2022-12-23T16:48:55.410Z,99970.13
2022-12-23T16:51:23.450Z,99974.41
2022-12-23T16:53:51.708Z,99980.59
2022-12-23T16:56:20.340Z,99977.97
2022-12-23T16:58:46.770Z,99982.41
2022-12-23T17:01:24.996Z,99990.59
2022-12-23T17:03:51.888Z,99991.25
2022-12-23T17:06:20.391Z,99996.97
2022-12-23T17:08:48.055Z,100001.56
2022-12-23T17:11:17.671Z,99998.94
2022-12-23T17:13:44.903Z,100007.97
2022-12-23T17:16:17.840Z,99992.91
2022-12-23T17:18:44.289Z,99989.13
2022-12-23T17:21:39.149Z,99995.00
2022-12-23T17:24:11.350Z,99993.38
2022-12-23T17:26:37.771Z,100001.06
2022-12-23T17:29:05.496Z,100011.34
2022-12-23T17:31:33.907Z,100008.91
2022-12-23T17:34:01.076Z,100007.75
2022-12-23T17:36:27.649Z,100001.88
2022-12-23T17:38:54.026Z,100005.28
2022-12-23T17:41:28.477Z,99999.41
2022-12-23T17:43:55.067Z,100001.88
2022-12-23T17:46:21.973Z,100008.41
2022-12-23T17:48:48.548Z,100011.69
2022-12-23T17:51:17.239Z,100012.53
2022-12-23T17:53:44.688Z,100010.72
2022-12-23T17:56:21.831Z,100011.06
2022-12-23T17:58:49.796Z,100010.91
2022-12-23T18:01:26.274Z,100013.84
2022-12-23T18:03:53.477Z,100014.00
2022-12-23T18:06:21.625Z,100023.19
2022-12-23T18:08:48.575Z,100024.34
2022-12-23T18:11:29.665Z,100023.53
2022-12-23T18:13:56.197Z,100031.38
2022-12-23T18:16:22.617Z,100042.25
2022-12-23T18:18:49.046Z,100040.28
2022-12-23T18:21:25.142Z,100041.59
2022-12-23T18:23:54.722Z,100044.69
2022-12-23T18:26:21.219Z,100041.41
2022-12-23T18:28:47.770Z,100041.25
2022-12-23T18:31:18.101Z,100041.56
2022-12-23T18:33:45.221Z,100042.53
2022-12-23T18:36:32.883Z,100048.78
2022-12-23T18:38:59.870Z,100045.50
2022-12-23T18:41:27.163Z,100056.81
2022-12-23T18:43:54.182Z,100048.78
2022-12-23T18:46:20.784Z,100057.81
2022-12-23T18:48:47.825Z,100066.00
2022-12-23T18:51:20.068Z,100060.28
2022-12-23T18:53:47.838Z,100068.94
2022-12-23T18:56:16.173Z,100070.91
2022-12-23T18:58:42.741Z,100073.69
2022-12-23T19:01:13.541Z,100075.00
2022-12-23T19:03:40.975Z,100086.50
2022-12-23T19:06:09.641Z,100076.47
2022-12-23T19:08:36.447Z,100079.75
2022-12-23T19:11:10.534Z,100078.63
2022-12-23T19:13:36.859Z,100081.56
2022-12-23T19:16:03.603Z,100077.97
2022-12-23T19:18:29.964Z,100077.47
2022-12-23T19:20:56.323Z,100090.88
2022-12-23T19:23:22.787Z,100092.19
2022-12-23T19:25:55.335Z,100115.00
2022-12-23T19:28:23.541Z,100091.72
2022-12-23T19:30:50.068Z,100087.28
2022-12-23T19:33:19.634Z,100094.00
2022-12-23T19:35:46.129Z,100094.50
2022-12-23T19:38:12.801Z,100114.69
2022-12-23T19:40:39.375Z,100117.31
2022-12-23T19:43:05.727Z,100119.91
2022-12-23T19:45:32.142Z,100118.13
2022-12-23T19:47:58.704Z,100122.53
2022-12-23T19:50:27.026Z,100127.59
2022-12-23T19:52:54.707Z,100123.34
2022-12-23T19:55:21.207Z,100127.28
2022-12-23T19:57:47.563Z,100126.13
2022-12-23T20:00:15.942Z,100127.44
2022-12-23T20:02:43.223Z,100129.56
2022-12-23T20:05:10.085Z,100146.47
2022-12-23T20:07:37.114Z,100145.31
2022-12-23T20:10:05.557Z,100147.78
2022-12-23T20:12:32.148Z,100157.75
2022-12-23T20:14:58.604Z,100164.16
2022-12-23T20:17:25.246Z,100164.47
2022-12-23T20:19:51.730Z,100167.09
2022-12-23T20:22:18.132Z,100161.19
2022-12-23T20:24:51.046Z,100174.00
2022-12-23T20:27:20.157Z,100180.03
2022-12-23T20:29:49.243Z,100172.69
2022-12-23T20:32:15.584Z,100182.66
2022-12-23T20:34:41.950Z,100183.47
2022-12-23T20:37:08.541Z,100186.28
2022-12-23T20:39:37.132Z,100189.06
2022-12-23T20:42:03.848Z,100200.84
2022-12-23T20:44:35.697Z,100196.25
2022-12-23T20:47:03.590Z,100201.31
2022-12-23T20:49:30.221Z,100213.47
2022-12-23T20:51:57.185Z,100219.84
2022-12-23T20:54:29.749Z,100223.94
2022-12-23T20:56:58.937Z,100237.47
2022-12-23T20:59:25.781Z,100230.09
2022-12-23T21:01:52.272Z,100238.31
2022-12-23T21:04:18.852Z,100248.44
2022-12-23T21:06:45.454Z,100248.59
2022-12-23T21:09:13.932Z,100254.16
2022-12-23T21:11:43.537Z,100263.31
2022-12-23T21:14:10.632Z,100251.84
2022-12-23T21:16:38.466Z,100263.31
2022-12-23T21:19:06.705Z,100258.88
2022-12-23T21:21:33.612Z,100249.56
2022-12-23T21:24:04.038Z,100255.94
2022-12-23T21:26:31.363Z,100277.91
2022-12-23T21:28:59.432Z,100273.31
2022-12-23T21:31:27.794Z,100270.19
2022-12-23T21:33:54.854Z,100294.91
2022-12-23T21:36:24.434Z,100299.16
2022-12-23T21:38:51.634Z,100304.41
2022-12-23T21:41:20.511Z,100310.59
2022-12-23T21:43:47.468Z,100302.66
2022-12-23T21:46:17.063Z,100308.91
2022-12-23T21:48:44.367Z,100319.00
2022-12-23T21:51:21.112Z,100319.47
2022-12-23T21:53:49.998Z,100338.72
2022-12-23T21:56:18.574Z,100330.72
2022-12-23T21:58:45.290Z,100333.19
2022-12-23T22:01:20.124Z,100333.50
2022-12-23T22:03:48.690Z,100328.91
2022-12-23T22:06:22.063Z,100335.00
2022-12-23T22:08:49.431Z,100327.97
2022-12-23T22:11:19.140Z,100349.59
2022-12-23T22:13:46.515Z,100340.91
2022-12-23T22:16:19.400Z,100340.06
2022-12-23T22:18:46.810Z,100348.09
2022-12-23T22:21:15.901Z,100352.06
2022-12-23T22:23:42.950Z,100345.97
2022-12-23T22:26:12.005Z,100350.44
2022-12-23T22:28:39.360Z,100372.41
2022-12-23T22:31:10.684Z,100359.81
2022-12-23T22:33:37.073Z,100369.78
2022-12-23T22:36:04.247Z,100367.81
2022-12-23T22:38:30.600Z,100392.06
2022-12-23T22:40:57.042Z,100378.66
2022-12-23T22:43:23.465Z,100383.22
2022-12-23T22:46:01.042Z,100399.47
2022-12-23T22:48:29.456Z,100384.75
2022-12-23T22:51:07.511Z,100406.03
2022-12-23T22:53:33.872Z,100408.84
2022-12-23T22:56:00.939Z,100400.97
2022-12-23T22:58:28.420Z,100402.75
2022-12-23T23:00:54.936Z,100407.66
2022-12-23T23:03:21.721Z,100409.94
2022-12-23T23:06:03.486Z,100419.16
2022-12-23T23:08:30.828Z,100430.75
2022-12-23T23:10:59.437Z,100427.31
2022-12-23T23:13:27.519Z,100431.56
2022-12-23T23:15:54.599Z,100428.91
2022-12-23T23:18:21.333Z,100440.19
2022-12-23T23:20:48.060Z,100459.38
2022-12-23T23:23:14.510Z,100454.97
2022-12-23T23:25:40.994Z,100437.06
2022-12-23T23:28:07.476Z,100459.38
2022-12-23T23:30:33.847Z,100438.41
2022-12-23T23:33:00.187Z,100463.78
2022-12-23T23:35:26.865Z,100460.06
2022-12-23T23:37:53.370Z,100459.38
2022-12-23T23:40:19.913Z,100463.63
2022-12-23T23:42:46.421Z,100466.56
2022-12-23T23:45:12.785Z,100464.09
2022-12-23T23:47:39.167Z,100469.19
2022-12-23T23:50:06.548Z,100472.53
2022-12-23T23:52:32.968Z,100485.13
2022-12-23T23:54:59.664Z,100483.91
2022-12-23T23:57:26.385Z,100500.63
2022-12-23T23:59:53.061Z,100500.47
